createdAt,value
2022-08-22T00:01:02.461Z,8.63
2022-08-22T00:03:50.193Z,10.48
2022-08-22T00:06:34.096Z,10.38
2022-08-22T00:09:23.233Z,10.93
2022-08-22T00:12:14.209Z,7.68
2022-08-22T00:14:59.957Z,7.93
2022-08-22T00:17:36.709Z,8.45
2022-08-22T00:20:19.176Z,13.57
2022-08-22T00:22:56.764Z,7.65
2022-08-22T00:25:25.904Z,8.80
2022-08-22T00:27:59.444Z,10.05
2022-08-22T00:30:30.374Z,8.25
2022-08-22T00:33:05.435Z,8.85
2022-08-22T00:35:40.551Z,11.32
2022-08-22T00:38:31.111Z,8.18
2022-08-22T00:41:22.001Z,8.38
2022-08-22T00:46:35.297Z,8.55
2022-08-22T00:50:02.839Z,11.05
2022-08-22T00:52:48.892Z,8.73
2022-08-22T00:55:38.194Z,16.12
2022-08-22T00:58:30.367Z,9.23
2022-08-22T01:01:09.569Z,12.93
2022-08-22T01:03:47.012Z,12.43
2022-08-22T01:06:32.969Z,10.52
2022-08-22T01:09:16.621Z,8.38
2022-08-22T01:11:50.255Z,10.48
2022-08-22T01:15:05.713Z,8.93
2022-08-22T01:17:49.420Z,8.98
2022-08-22T01:20:39.050Z,10.50
2022-08-22T01:23:33.827Z,12.50
2022-08-22T01:26:07.293Z,10.98
2022-08-22T01:29:05.381Z,12.85
2022-08-22T01:32:08.767Z,11.18
2022-08-22T01:34:58.987Z,12.80
2022-08-22T01:37:58.809Z,10.63
2022-08-22T01:40:53.738Z,12.65
2022-08-22T01:43:58.847Z,12.20
2022-08-22T01:46:58.587Z,10.85
2022-08-22T01:49:35.605Z,12.25
2022-08-22T01:52:28.900Z,10.40
2022-08-22T01:55:05.749Z,12.68
2022-08-22T01:58:02.073Z,11.18
2022-08-22T02:00:49.058Z,12.02
2022-08-22T02:03:40.312Z,13.15
2022-08-22T02:06:16.899Z,12.30
2022-08-22T02:08:59.210Z,13.02
2022-08-22T02:11:46.867Z,10.02
2022-08-22T02:14:23.651Z,12.43
2022-08-22T02:17:07.741Z,14.02
2022-08-22T02:19:47.187Z,16.08
2022-08-22T02:22:56.311Z,18.42
2022-08-22T02:25:46.684Z,14.02
2022-08-22T02:28:30.298Z,14.32
2022-08-22T02:31:11.177Z,15.15
2022-08-22T02:34:00.280Z,16.00
2022-08-22T02:36:58.266Z,14.63
2022-08-22T02:39:37.706Z,16.55
2022-08-22T02:42:14.461Z,14.60
2022-08-22T02:45:24.059Z,14.80
2022-08-22T02:48:05.175Z,14.02
2022-08-22T02:53:17.358Z,15.65
2022-08-22T02:56:28.099Z,15.55
2022-08-22T02:58:59.890Z,12.02
2022-08-22T03:01:27.781Z,13.27
2022-08-22T03:04:30.333Z,12.65
2022-08-22T03:07:12.855Z,13.30
2022-08-22T03:10:10.333Z,13.82
2022-08-22T03:12:59.446Z,13.18
2022-08-22T03:15:59.841Z,13.50
2022-08-22T03:21:11.839Z,15.57
2022-08-22T03:23:55.825Z,14.95
2022-08-22T03:26:49.963Z,19.33
2022-08-22T03:29:33.414Z,18.12
2022-08-22T03:32:19.350Z,16.67
2022-08-22T03:35:02.123Z,21.50
2022-08-22T03:37:50.890Z,15.32
2022-08-22T03:41:07.021Z,19.80
2022-08-22T03:43:55.866Z,14.65
2022-08-22T03:46:57.860Z,17.95
2022-08-22T03:49:40.436Z,13.93
2022-08-22T03:52:15.781Z,16.37
2022-08-22T03:55:32.490Z,28.52
2022-08-22T03:58:27.690Z,15.98
2022-08-22T04:01:20.305Z,75.40
2022-08-22T04:04:00.020Z,42.80
2022-08-22T04:06:41.946Z,97.28
2022-08-22T04:09:44.277Z,16.23
2022-08-22T04:12:27.166Z,98.50
2022-08-22T04:15:16.177Z,123.20
2022-08-22T04:18:11.483Z,92.15
2022-08-22T04:20:54.446Z,18.10
2022-08-22T04:23:46.951Z,42.33
2022-08-22T04:26:44.639Z,17.58
2022-08-22T04:29:21.462Z,13.38
2022-08-22T04:32:03.384Z,13.77
2022-08-22T04:34:40.166Z,24.73
2022-08-22T04:37:24.077Z,14.52
2022-08-22T04:40:15.821Z,22.52
2022-08-22T04:43:00.503Z,15.02
2022-08-22T04:45:42.709Z,14.30
2022-08-22T04:48:18.947Z,30.17
2022-08-22T04:50:53.282Z,21.73
2022-08-22T04:53:39.311Z,82.28
2022-08-22T04:56:46.009Z,21.73
2022-08-22T04:59:18.005Z,23.98
2022-08-22T05:01:58.732Z,19.45
2022-08-22T05:04:35.820Z,19.58
2022-08-22T05:07:09.081Z,20.08
2022-08-22T05:09:39.468Z,23.02
2022-08-22T05:12:16.756Z,26.65
2022-08-22T05:14:51.510Z,45.08
2022-08-22T05:17:26.076Z,22.90
2022-08-22T05:19:56.841Z,26.05
2022-08-22T05:22:29.004Z,42.85
2022-08-22T05:25:09.597Z,23.73
2022-08-22T05:27:44.421Z,24.00
2022-08-22T05:30:16.513Z,25.95
2022-08-22T05:32:50.070Z,21.90
2022-08-22T05:35:24.150Z,25.10
2022-08-22T05:37:55.496Z,21.83
2022-08-22T05:40:28.092Z,21.55
2022-08-22T05:42:57.756Z,15.48
2022-08-22T05:45:28.347Z,22.98
2022-08-22T05:48:04.350Z,25.08
2022-08-22T05:50:41.707Z,21.65
2022-08-22T05:53:24.751Z,19.30
2022-08-22T05:55:59.338Z,19.23
2022-08-22T05:58:39.190Z,18.98
2022-08-22T06:01:52.138Z,18.60
2022-08-22T06:04:54.825Z,18.27
2022-08-22T06:07:33.372Z,18.70
2022-08-22T06:10:07.612Z,21.15
2022-08-22T06:12:45.679Z,17.02
2022-08-22T06:15:39.098Z,25.23
2022-08-22T06:18:12.913Z,20.27
2022-08-22T06:20:54.979Z,16.98
2022-08-22T06:23:29.828Z,22.50
2022-08-22T06:26:01.458Z,21.85
2022-08-22T06:28:35.612Z,19.23
2022-08-22T06:31:05.994Z,24.90
2022-08-22T06:33:39.089Z,16.27
2022-08-22T06:36:30.622Z,18.33
2022-08-22T06:39:15.074Z,16.20
2022-08-22T06:42:01.520Z,18.23
2022-08-22T06:44:38.029Z,17.62
2022-08-22T06:47:10.381Z,20.02
2022-08-22T06:49:40.608Z,15.20
2022-08-22T06:57:42.845Z,14.93
2022-08-22T07:00:14.329Z,17.37
2022-08-22T07:03:02.658Z,14.73
2022-08-22T07:05:36.807Z,15.55
2022-08-22T07:08:19.005Z,16.10
2022-08-22T07:11:05.648Z,19.25
2022-08-22T07:13:39.553Z,18.37
2022-08-22T07:16:09.139Z,16.48
2022-08-22T07:18:49.196Z,19.12
2022-08-22T07:21:29.401Z,17.77
2022-08-22T07:24:01.388Z,15.55
2022-08-22T07:26:33.795Z,13.88
2022-08-22T07:29:42.808Z,15.32
2022-08-22T07:32:20.616Z,13.85
2022-08-22T07:35:11.768Z,13.68
2022-08-22T07:37:49.014Z,12.40
2022-08-22T07:40:39.163Z,11.45
2022-08-22T07:43:23.201Z,13.93
2022-08-22T07:45:55.531Z,12.25
2022-08-22T07:48:26.559Z,14.20
2022-08-22T07:51:14.799Z,13.20
2022-08-22T07:53:46.101Z,14.98
2022-08-22T07:56:24.976Z,18.10
2022-08-22T07:59:12.963Z,14.38
2022-08-22T08:01:53.613Z,14.82
2022-08-22T08:04:30.655Z,17.83
2022-08-22T08:07:01.387Z,16.95
2022-08-22T08:09:33.287Z,15.18
2022-08-22T08:12:04.382Z,11.12
2022-08-22T08:14:33.346Z,13.48
2022-08-22T08:17:06.156Z,15.68
2022-08-22T08:19:38.591Z,16.55
2022-08-22T08:22:07.127Z,17.77
2022-08-22T08:24:43.437Z,14.00
2022-08-22T08:27:39.832Z,14.18
2022-08-22T08:30:21.347Z,13.32
2022-08-22T08:32:57.617Z,14.90
2022-08-22T08:36:03.290Z,13.98
2022-08-22T08:38:45.509Z,19.83
2022-08-22T08:41:34.372Z,16.48
2022-08-22T08:44:07.325Z,19.15
2022-08-22T08:46:55.309Z,15.85
2022-08-22T08:49:43.086Z,18.98
2022-08-22T08:52:11.082Z,18.42
2022-08-22T08:55:00.532Z,18.15
2022-08-22T09:00:21.110Z,16.70
2022-08-22T09:02:58.853Z,21.00
2022-08-22T09:05:54.641Z,16.80
2022-08-22T09:08:35.124Z,16.30
2022-08-22T09:11:09.981Z,20.62
2022-08-22T09:14:14.444Z,15.48
2022-08-22T09:17:00.646Z,21.12
2022-08-22T09:19:54.807Z,15.45
2022-08-22T09:22:53.879Z,16.00
2022-08-22T09:25:38.504Z,13.90
2022-08-22T09:28:24.245Z,15.05
2022-08-22T09:31:02.678Z,12.73
2022-08-22T09:34:05.987Z,12.23
2022-08-22T09:36:58.411Z,13.68
2022-08-22T09:39:55.571Z,10.55
2022-08-22T09:42:25.426Z,12.30
2022-08-22T09:45:11.760Z,12.98
2022-08-22T09:48:07.461Z,12.10
2022-08-22T09:50:35.698Z,12.88
2022-08-22T09:53:41.432Z,14.32
2022-08-22T09:56:30.644Z,11.50
2022-08-22T09:59:01.662Z,14.27
2022-08-22T10:01:49.883Z,12.80
2022-08-22T10:04:46.324Z,12.48
2022-08-22T10:07:38.156Z,14.38
2022-08-22T10:10:39.393Z,10.98
2022-08-22T10:13:34.139Z,12.18
2022-08-22T10:16:24.027Z,12.15
2022-08-22T10:19:08.428Z,15.05
2022-08-22T10:22:16.084Z,16.60
2022-08-22T10:24:57.182Z,13.52
2022-08-22T10:27:35.658Z,11.35
2022-08-22T10:30:17.006Z,12.25
2022-08-22T10:33:06.602Z,12.98
2022-08-22T10:35:40.856Z,11.25
2022-08-22T10:38:32.413Z,12.15
2022-08-22T10:41:18.209Z,14.55
2022-08-22T10:44:03.906Z,15.45
2022-08-22T10:46:42.153Z,14.85
2022-08-22T10:49:28.383Z,11.15
2022-08-22T10:52:06.492Z,15.65
2022-08-22T10:54:58.531Z,12.57
2022-08-22T10:57:31.611Z,12.77
2022-08-22T11:00:35.899Z,11.35
2022-08-22T11:03:23.354Z,10.10
2022-08-22T11:06:06.830Z,12.57
2022-08-22T11:09:26.420Z,12.82
2022-08-22T11:12:04.717Z,13.62
2022-08-22T11:14:53.591Z,11.12
2022-08-22T11:17:53.950Z,9.20
2022-08-22T11:25:52.312Z,10.07
2022-08-22T11:29:13.784Z,14.57
2022-08-22T11:32:06.063Z,15.30
2022-08-22T11:34:45.004Z,9.50
2022-08-22T11:37:44.001Z,13.62
2022-08-22T11:40:30.585Z,7.40
2022-08-22T11:43:28.864Z,10.88
2022-08-22T11:46:15.316Z,8.18
2022-08-22T11:49:13.264Z,13.27
2022-08-22T11:52:25.625Z,11.30
2022-08-22T11:55:07.246Z,8.73
2022-08-22T11:57:44.798Z,11.02
2022-08-22T12:00:39.265Z,11.50
2022-08-22T12:03:19.048Z,7.65
2022-08-22T12:06:12.827Z,10.30
2022-08-22T12:08:50.942Z,9.48
2022-08-22T12:11:34.978Z,8.35
2022-08-22T12:14:34.640Z,10.70
2022-08-22T12:17:56.015Z,11.07
2022-08-22T12:20:32.370Z,8.10
2022-08-22T12:27:14.288Z,9.73
2022-08-22T12:40:00.854Z,11.57
2022-08-22T12:42:39.235Z,4.03
2022-08-22T12:45:27.642Z,6.72
2022-08-22T12:48:38.813Z,6.15
2022-08-22T12:51:32.764Z,13.05
2022-08-22T12:54:19.807Z,5.20
2022-08-22T12:56:56.045Z,2.83
2022-08-22T12:59:36.282Z,2.80
2022-08-22T13:02:35.018Z,4.37
2022-08-22T13:05:20.136Z,4.70
2022-08-22T13:07:55.076Z,6.50
2022-08-22T13:10:42.297Z,6.10
2022-08-22T13:13:45.307Z,6.00
2022-08-22T13:16:34.666Z,5.07
2022-08-22T13:19:13.530Z,6.17
2022-08-22T13:21:52.065Z,6.57
2022-08-22T13:24:52.610Z,6.18
2022-08-22T13:27:26.909Z,3.28
2022-08-22T13:30:07.628Z,4.35
2022-08-22T13:32:46.382Z,6.50
2022-08-22T13:35:32.491Z,8.65
2022-08-22T13:38:13.981Z,8.43
2022-08-22T13:40:47.459Z,6.87
2022-08-22T13:43:22.972Z,9.57
2022-08-22T13:46:03.282Z,7.47
2022-08-22T13:48:47.048Z,6.47
2022-08-22T13:51:28.926Z,7.68
2022-08-22T13:54:21.357Z,7.50
2022-08-22T13:57:23.817Z,7.47
2022-08-22T14:00:29.573Z,7.75
2022-08-22T14:03:19.922Z,4.68
2022-08-22T14:05:54.274Z,8.32
2022-08-22T14:08:37.146Z,6.03
2022-08-22T14:11:35.497Z,6.37
2022-08-22T14:14:08.257Z,8.35
2022-08-22T14:16:49.348Z,9.38
2022-08-22T14:19:59.101Z,7.97
2022-08-22T14:22:34.778Z,8.55
2022-08-22T14:25:24.961Z,15.88
2022-08-22T14:27:59.375Z,10.85
2022-08-22T14:30:39.146Z,7.28
2022-08-22T14:33:27.009Z,7.68
2022-08-22T14:36:02.165Z,13.38
2022-08-22T14:38:33.224Z,11.77
2022-08-22T14:41:10.077Z,10.15
2022-08-22T14:44:02.480Z,13.23
2022-08-22T14:46:37.799Z,10.85
2022-08-22T14:49:07.137Z,11.85
2022-08-22T14:51:38.918Z,12.05
2022-08-22T14:54:28.946Z,9.93
2022-08-22T14:57:00.673Z,9.25
2022-08-22T14:59:31.663Z,9.80
2022-08-22T15:02:15.687Z,8.90
2022-08-22T15:04:48.205Z,9.80
2022-08-22T15:07:32.511Z,11.15
2022-08-22T15:10:18.154Z,11.05
2022-08-22T15:12:54.053Z,11.02
2022-08-22T15:15:53.406Z,15.05
2022-08-22T15:18:30.273Z,9.63
2022-08-22T15:21:10.092Z,11.10
2022-08-22T15:23:45.104Z,12.70
2022-08-22T15:26:30.805Z,12.98
2022-08-22T15:29:07.376Z,11.20
2022-08-22T15:31:36.559Z,12.37
2022-08-22T15:34:22.024Z,9.68
2022-08-22T15:37:18.952Z,10.15
2022-08-22T15:39:59.258Z,9.45
2022-08-22T15:42:33.260Z,10.45
2022-08-22T15:45:02.384Z,10.48
2022-08-22T15:47:36.863Z,11.55
2022-08-22T15:50:10.740Z,9.93
2022-08-22T15:53:13.362Z,17.08
2022-08-22T15:56:07.055Z,22.80
2022-08-22T15:58:40.409Z,16.67
2022-08-22T16:01:24.304Z,11.68
2022-08-22T16:04:14.539Z,8.95
2022-08-22T16:06:58.189Z,12.48
2022-08-22T16:09:34.618Z,12.73
2022-08-22T16:12:08.917Z,9.57
2022-08-22T16:14:36.860Z,9.20
2022-08-22T16:17:26.565Z,12.80
2022-08-22T16:20:19.674Z,12.95
2022-08-22T16:22:56.920Z,10.75
2022-08-22T16:25:49.341Z,13.75
2022-08-22T16:28:56.452Z,10.00
2022-08-22T16:31:23.008Z,9.15
2022-08-22T16:33:51.412Z,11.93
2022-08-22T16:36:40.845Z,10.00
2022-08-22T16:39:22.592Z,8.77
2022-08-22T16:41:54.323Z,7.97
2022-08-22T16:44:28.221Z,12.63
2022-08-22T16:47:13.880Z,8.13
2022-08-22T16:50:07.719Z,11.65
2022-08-22T16:52:52.005Z,9.57
2022-08-22T16:55:28.852Z,8.30
2022-08-22T16:58:06.664Z,9.05
2022-08-22T17:00:57.686Z,8.65
2022-08-22T17:03:32.187Z,7.93
2022-08-22T17:06:36.854Z,7.82
2022-08-22T17:09:42.952Z,8.98
2022-08-22T17:12:19.947Z,12.63
2022-08-22T17:14:47.904Z,12.82
2022-08-22T17:17:24.647Z,8.75
2022-08-22T17:20:30.490Z,10.40
2022-08-22T17:23:34.855Z,11.43
2022-08-22T17:26:05.603Z,13.82
2022-08-22T17:31:27.873Z,8.85
2022-08-22T17:34:09.430Z,9.57
2022-08-22T17:36:53.187Z,14.65
2022-08-22T17:39:42.733Z,9.05
2022-08-22T17:42:53.381Z,13.23
2022-08-22T17:45:28.264Z,11.98
2022-08-22T17:47:56.356Z,14.60
2022-08-22T17:50:52.072Z,11.15
2022-08-22T17:53:37.662Z,8.88
2022-08-22T17:56:05.449Z,12.55
2022-08-22T17:58:45.780Z,9.18
2022-08-22T18:01:32.737Z,15.57
2022-08-22T18:04:05.276Z,11.80
2022-08-22T18:06:44.017Z,11.85
2022-08-22T18:09:26.270Z,10.60
2022-08-22T18:12:21.082Z,10.50
2022-08-22T18:15:20.239Z,9.63
2022-08-22T18:17:55.495Z,9.88
2022-08-22T18:20:44.894Z,11.57
2022-08-22T18:23:40.522Z,12.05
2022-08-22T18:26:31.677Z,11.75
2022-08-22T18:29:16.946Z,9.70
2022-08-22T18:32:00.134Z,9.75
2022-08-22T18:35:10.157Z,11.45
2022-08-22T18:37:53.725Z,9.82
2022-08-22T18:40:30.530Z,10.23
2022-08-22T18:43:14.276Z,10.77
2022-08-22T18:45:47.604Z,10.38
2022-08-22T18:48:34.265Z,9.98
2022-08-22T18:51:23.970Z,10.50
2022-08-22T18:54:04.745Z,10.07
2022-08-22T18:56:38.427Z,9.83
2022-08-22T18:59:12.870Z,10.55
2022-08-22T19:01:46.585Z,8.75
2022-08-22T19:04:25.671Z,8.65
2022-08-22T19:07:25.693Z,9.25
2022-08-22T19:10:05.848Z,10.20
2022-08-22T19:12:55.608Z,10.80
2022-08-22T19:15:23.627Z,11.35
2022-08-22T19:17:59.149Z,10.15
2022-08-22T19:20:49.839Z,10.13
2022-08-22T19:23:32.918Z,9.20
2022-08-22T19:26:23.198Z,9.05
2022-08-22T19:28:53.013Z,11.07
2022-08-22T19:31:23.541Z,12.23
2022-08-22T19:34:14.114Z,9.70
2022-08-22T19:36:42.843Z,10.75
2022-08-22T19:39:14.741Z,9.00
2022-08-22T19:41:59.647Z,10.27
2022-08-22T19:44:27.341Z,10.05
2022-08-22T19:47:07.137Z,8.25
2022-08-22T19:49:39.560Z,11.73
2022-08-22T19:52:16.403Z,9.10
2022-08-22T19:55:05.318Z,8.50
2022-08-22T19:57:47.171Z,14.73
2022-08-22T20:00:22.382Z,10.93
2022-08-22T20:03:13.632Z,10.05
2022-08-22T20:05:57.629Z,10.60
2022-08-22T20:08:57.661Z,14.95
2022-08-22T20:11:37.867Z,11.60
2022-08-22T20:16:59.541Z,11.45
2022-08-22T20:20:15.761Z,11.57
2022-08-22T20:22:45.892Z,9.90
2022-08-22T20:25:46.995Z,11.80
2022-08-22T20:31:10.659Z,15.93
2022-08-22T20:33:42.582Z,10.80
2022-08-22T20:36:27.555Z,13.35
2022-08-22T20:39:06.308Z,11.30
2022-08-22T20:41:41.245Z,14.32
2022-08-22T20:44:21.786Z,11.93
2022-08-22T20:47:04.409Z,8.80
2022-08-22T20:50:00.572Z,10.13
2022-08-22T20:52:34.778Z,10.55
2022-08-22T20:55:13.438Z,8.15
2022-08-22T20:57:49.023Z,8.60
2022-08-22T21:00:25.242Z,7.40
2022-08-22T21:03:28.081Z,9.32
2022-08-22T21:05:55.814Z,7.00
2022-08-22T21:08:26.229Z,10.20
2022-08-22T21:11:21.828Z,11.73
2022-08-22T21:13:51.204Z,9.27
2022-08-22T21:16:33.402Z,8.82
2022-08-22T21:19:04.529Z,8.13
2022-08-22T21:21:34.771Z,13.07
2022-08-22T21:24:06.613Z,7.10
2022-08-22T21:26:51.874Z,6.87
2022-08-22T21:29:26.590Z,8.05
2022-08-22T21:32:14.718Z,9.05
2022-08-22T21:34:49.086Z,7.93
2022-08-22T21:37:22.532Z,9.43
2022-08-22T21:40:00.335Z,6.82
2022-08-22T21:42:34.470Z,12.37
2022-08-22T21:45:05.275Z,12.13
2022-08-22T21:47:36.027Z,8.07
2022-08-22T21:50:13.178Z,7.12
2022-08-22T21:52:46.290Z,7.22
2022-08-22T21:55:23.975Z,6.78
2022-08-22T21:58:12.794Z,11.18
2022-08-22T22:01:04.054Z,6.55
2022-08-22T22:03:37.714Z,8.63
2022-08-22T22:06:06.695Z,6.82
2022-08-22T22:08:34.656Z,7.37
2022-08-22T22:11:11.336Z,9.13
2022-08-22T22:13:39.879Z,7.62
2022-08-22T22:16:08.615Z,9.68
2022-08-22T22:18:37.824Z,5.93
2022-08-22T22:21:05.894Z,6.50
2022-08-22T22:23:33.688Z,9.30
2022-08-22T22:26:04.165Z,7.15
2022-08-22T22:28:36.596Z,8.07
2022-08-22T22:31:05.371Z,6.93
2022-08-22T22:33:37.455Z,8.73
2022-08-22T22:36:09.945Z,7.47
2022-08-22T22:38:40.205Z,7.18
2022-08-22T22:41:08.121Z,9.10
2022-08-22T22:43:36.105Z,9.32
2022-08-22T22:46:04.888Z,6.75
2022-08-22T22:48:33.858Z,7.00
2022-08-22T22:51:09.109Z,8.48
2022-08-22T22:53:42.726Z,10.93
2022-08-22T22:56:17.803Z,8.05
2022-08-22T22:58:58.981Z,8.95
2022-08-22T23:01:28.852Z,8.18
2022-08-22T23:03:58.719Z,7.28
2022-08-22T23:06:33.780Z,11.10
2022-08-22T23:09:01.771Z,8.50
2022-08-22T23:11:30.818Z,8.90
2022-08-22T23:13:58.539Z,11.15
2022-08-22T23:16:28.634Z,7.93
2022-08-22T23:18:56.695Z,9.63
2022-08-22T23:21:30.005Z,7.10
2022-08-22T23:24:00.113Z,9.27
2022-08-22T23:26:28.851Z,10.05
2022-08-22T23:28:57.849Z,6.82
2022-08-22T23:31:31.313Z,10.73
2022-08-22T23:34:05.992Z,12.30
2022-08-22T23:36:35.129Z,7.93
2022-08-22T23:39:05.319Z,8.50
2022-08-22T23:41:33.279Z,7.28
2022-08-22T23:44:01.290Z,8.70
2022-08-22T23:46:31.184Z,8.27
2022-08-22T23:48:59.097Z,10.53
2022-08-22T23:51:28.128Z,7.87
2022-08-22T23:53:58.134Z,9.55
2022-08-22T23:56:36.096Z,9.35
2022-08-22T23:59:07.741Z,10.60
